createdAt,value
2019-06-27T00:01:43.520Z,5.18
2019-06-27T00:04:11.440Z,5.00
2019-06-27T00:06:39.355Z,5.10
2019-06-27T00:09:07.295Z,5.12
2019-06-27T00:11:35.199Z,6.32
2019-06-27T00:14:03.107Z,5.40
2019-06-27T00:16:32.066Z,4.87
2019-06-27T00:18:59.992Z,5.27
2019-06-27T00:21:27.894Z,4.90
2019-06-27T00:23:57.020Z,5.30
2019-06-27T00:26:24.924Z,5.33
2019-06-27T00:28:52.839Z,5.20
2019-06-27T00:31:20.777Z,5.63
2019-06-27T00:33:48.694Z,5.90
2019-06-27T00:36:16.595Z,5.43
2019-06-27T00:38:44.586Z,5.37
2019-06-27T00:41:12.485Z,5.55
2019-06-27T00:43:40.388Z,5.37
2019-06-27T00:46:08.348Z,6.03
2019-06-27T00:48:36.253Z,5.65
2019-06-27T00:51:04.156Z,5.72
2019-06-27T00:53:32.090Z,6.12
2019-06-27T00:55:59.994Z,5.62
2019-06-27T00:58:27.905Z,5.37
2019-06-27T01:00:55.860Z,6.28
2019-06-27T01:03:23.767Z,5.78
2019-06-27T01:05:51.687Z,6.37
2019-06-27T01:08:20.448Z,6.47
2019-06-27T01:10:48.361Z,6.72
2019-06-27T01:13:16.282Z,6.57
2019-06-27T01:15:44.230Z,6.22
2019-06-27T01:18:17.128Z,6.40
2019-06-27T01:20:45.032Z,6.37
2019-06-27T01:23:12.988Z,6.80
2019-06-27T01:25:40.874Z,6.95
2019-06-27T01:28:08.783Z,6.78
2019-06-27T01:30:36.751Z,7.20
2019-06-27T01:33:04.677Z,7.07
2019-06-27T01:35:32.566Z,7.00
2019-06-27T01:38:00.534Z,8.00
2019-06-27T01:40:28.433Z,6.87
2019-06-27T01:42:56.346Z,7.30
2019-06-27T01:45:30.064Z,7.57
2019-06-27T01:47:57.964Z,7.28
2019-06-27T01:50:25.872Z,7.28
2019-06-27T01:52:54.066Z,6.82
2019-06-27T01:55:21.963Z,7.60
2019-06-27T01:57:49.881Z,7.07
2019-06-27T02:00:17.888Z,7.22
2019-06-27T02:02:45.733Z,7.07
2019-06-27T02:05:13.640Z,6.70
2019-06-27T02:07:41.573Z,7.80
2019-06-27T02:10:09.495Z,7.70
2019-06-27T02:12:37.396Z,7.05
2019-06-27T02:15:07.874Z,7.68
2019-06-27T02:17:35.787Z,7.45
2019-06-27T02:20:08.198Z,7.80
2019-06-27T02:22:36.131Z,7.53
2019-06-27T02:25:04.047Z,7.93
2019-06-27T02:27:31.965Z,7.45
2019-06-27T02:29:59.902Z,8.27
2019-06-27T02:32:27.812Z,7.60
2019-06-27T02:34:55.720Z,7.32
2019-06-27T02:37:24.661Z,8.73
2019-06-27T02:39:52.565Z,8.30
2019-06-27T02:42:20.479Z,7.75
2019-06-27T02:44:48.411Z,7.72
2019-06-27T02:47:16.332Z,9.32
2019-06-27T02:49:44.230Z,7.75
2019-06-27T02:52:12.161Z,8.68
2019-06-27T02:54:40.071Z,8.80
2019-06-27T02:57:07.979Z,8.35
2019-06-27T02:59:37.554Z,7.82
2019-06-27T03:02:05.465Z,8.60
2019-06-27T03:04:33.417Z,8.30
2019-06-27T03:07:01.347Z,8.40
2019-06-27T03:09:29.247Z,8.27
2019-06-27T03:12:00.216Z,7.95
2019-06-27T03:14:25.144Z,7.93
2019-06-27T03:16:53.059Z,9.32
2019-06-27T03:19:20.986Z,8.60
2019-06-27T03:21:50.836Z,8.95
2019-06-27T03:24:18.751Z,8.77
2019-06-27T03:26:46.672Z,9.63
2019-06-27T03:29:14.616Z,9.65
2019-06-27T03:31:42.536Z,9.02
2019-06-27T03:34:10.475Z,9.10
2019-06-27T03:36:38.421Z,8.70
2019-06-27T03:39:06.326Z,8.20
2019-06-27T03:41:34.251Z,9.00
2019-06-27T03:44:03.299Z,8.68
2019-06-27T03:46:31.205Z,7.65
2019-06-27T03:48:59.128Z,7.85
2019-06-27T03:51:27.063Z,8.15
2019-06-27T03:53:54.963Z,8.13
2019-06-27T03:56:22.875Z,8.07
2019-06-27T03:59:10.182Z,7.45
2019-06-27T04:01:18.720Z,8.38
2019-06-27T04:03:46.630Z,7.47
2019-06-27T04:06:15.607Z,7.15
2019-06-27T04:08:43.518Z,8.13
2019-06-27T04:11:11.430Z,8.30
2019-06-27T04:13:39.352Z,7.53
2019-06-27T04:16:07.267Z,7.32
2019-06-27T04:18:35.187Z,7.97
2019-06-27T04:21:03.116Z,9.30
2019-06-27T04:23:32.848Z,9.07
2019-06-27T04:26:01.554Z,9.80
2019-06-27T04:28:29.531Z,10.02
2019-06-27T04:30:57.446Z,9.20
2019-06-27T04:33:25.383Z,9.80
2019-06-27T04:35:53.410Z,9.20
2019-06-27T04:38:21.334Z,10.52
2019-06-27T04:40:49.249Z,10.07
2019-06-27T04:43:17.206Z,11.00
2019-06-27T04:45:45.123Z,11.40
2019-06-27T04:48:13.052Z,10.70
2019-06-27T04:50:41.025Z,11.07
2019-06-27T04:53:08.936Z,11.10
2019-06-27T04:55:36.854Z,11.20
2019-06-27T04:58:04.794Z,11.02
2019-06-27T05:00:32.711Z,11.73
2019-06-27T05:03:00.629Z,12.43
2019-06-27T05:05:28.563Z,11.85
2019-06-27T05:07:56.472Z,11.65
2019-06-27T05:10:24.395Z,11.80
2019-06-27T05:12:52.361Z,11.00
2019-06-27T05:15:20.294Z,12.30
2019-06-27T05:17:48.203Z,12.07
2019-06-27T05:20:16.146Z,12.35
2019-06-27T05:22:44.057Z,12.25
2019-06-27T05:25:15.121Z,13.23
2019-06-27T05:27:43.058Z,14.80
2019-06-27T05:30:10.976Z,13.40
2019-06-27T05:32:38.909Z,13.65
2019-06-27T05:35:11.454Z,13.33
2019-06-27T05:37:39.301Z,13.45
2019-06-27T05:40:07.216Z,12.45
2019-06-27T05:42:35.161Z,11.63
2019-06-27T05:45:03.085Z,11.10
2019-06-27T05:47:30.987Z,11.55
2019-06-27T05:49:58.931Z,11.60
2019-06-27T05:52:26.842Z,11.77
2019-06-27T05:54:54.779Z,12.18
2019-06-27T05:57:22.749Z,12.68
2019-06-27T05:59:50.662Z,12.40
2019-06-27T06:02:18.638Z,12.65
2019-06-27T06:04:46.522Z,11.20
2019-06-27T06:07:14.432Z,12.10
2019-06-27T06:09:42.348Z,12.23
2019-06-27T06:12:10.314Z,11.80
2019-06-27T06:14:38.229Z,12.35
2019-06-27T06:17:06.163Z,11.18
2019-06-27T06:19:35.129Z,11.25
2019-06-27T06:22:03.054Z,10.27
2019-06-27T06:24:30.973Z,9.07
2019-06-27T06:27:00.762Z,8.30
2019-06-27T06:29:28.672Z,7.68
2019-06-27T06:31:56.600Z,8.80
2019-06-27T06:34:24.554Z,7.50
2019-06-27T06:36:52.469Z,8.57
2019-06-27T06:39:20.362Z,8.25
2019-06-27T06:41:49.149Z,8.38
2019-06-27T06:44:17.076Z,8.85
2019-06-27T06:46:45.024Z,10.02
2019-06-27T06:49:12.939Z,10.57
2019-06-27T06:51:40.852Z,10.38
2019-06-27T06:54:08.764Z,11.02
2019-06-27T06:56:36.743Z,11.38
2019-06-27T06:59:04.663Z,10.20
2019-06-27T07:01:32.556Z,9.40
2019-06-27T07:04:01.334Z,9.48
2019-06-27T07:06:29.235Z,10.07
2019-06-27T07:08:57.155Z,10.98
2019-06-27T07:11:25.098Z,8.63
2019-06-27T07:13:53.020Z,8.27
2019-06-27T07:16:20.944Z,7.57
2019-06-27T07:18:49.038Z,7.05
2019-06-27T07:21:16.936Z,7.00
2019-06-27T07:23:44.881Z,6.83
2019-06-27T07:26:17.906Z,6.90
2019-06-27T07:28:46.732Z,7.20
2019-06-27T07:31:18.132Z,6.18
2019-06-27T07:33:42.577Z,6.85
2019-06-27T07:36:10.488Z,7.25
2019-06-27T07:38:38.396Z,7.10
2019-06-27T07:41:06.326Z,6.32
2019-06-27T07:43:34.234Z,6.10
2019-06-27T07:46:04.823Z,5.55
2019-06-27T07:48:32.947Z,6.90
2019-06-27T07:51:00.858Z,6.05
2019-06-27T07:53:28.754Z,6.45
2019-06-27T07:55:56.880Z,5.97
2019-06-27T07:58:24.625Z,6.00
2019-06-27T08:00:52.566Z,5.70
2019-06-27T08:03:22.227Z,5.57
2019-06-27T08:05:48.430Z,5.40
2019-06-27T08:08:16.347Z,5.97
2019-06-27T08:10:47.579Z,6.35
2019-06-27T08:13:15.488Z,5.72
2019-06-27T08:15:43.394Z,6.10
2019-06-27T08:18:11.347Z,5.47
2019-06-27T08:20:39.259Z,6.78
2019-06-27T08:23:07.185Z,6.45
2019-06-27T08:25:35.116Z,5.57
2019-06-27T08:28:03.021Z,6.43
2019-06-27T08:30:35.186Z,6.87
2019-06-27T08:33:06.709Z,6.00
2019-06-27T08:35:33.643Z,7.62
2019-06-27T08:37:59.912Z,6.57
2019-06-27T08:40:27.849Z,5.60
2019-06-27T08:42:55.757Z,7.20
2019-06-27T08:45:23.686Z,7.40
2019-06-27T08:47:51.635Z,6.43
2019-06-27T08:50:19.550Z,7.05
2019-06-27T08:52:47.467Z,7.28
2019-06-27T08:55:15.730Z,6.82
2019-06-27T08:57:43.646Z,6.35
2019-06-27T09:00:11.571Z,5.78
2019-06-27T09:02:39.502Z,6.62
2019-06-27T09:05:07.405Z,7.03
2019-06-27T09:07:35.317Z,6.15
2019-06-27T09:10:03.269Z,7.03
2019-06-27T09:12:31.186Z,5.87
2019-06-27T09:15:01.205Z,6.03
2019-06-27T09:17:27.057Z,6.53
2019-06-27T09:19:57.399Z,6.28
2019-06-27T09:22:25.321Z,5.62
2019-06-27T09:24:53.264Z,6.00
2019-06-27T09:27:21.174Z,5.65
2019-06-27T09:29:49.134Z,5.78
2019-06-27T09:32:25.558Z,5.62
2019-06-27T09:34:46.578Z,4.90
2019-06-27T09:37:14.494Z,4.68
2019-06-27T09:39:42.832Z,4.32
2019-06-27T09:42:10.737Z,4.90
2019-06-27T09:44:42.091Z,5.72
2019-06-27T09:47:06.620Z,4.72
2019-06-27T09:49:34.536Z,4.60
2019-06-27T09:52:02.442Z,4.68
2019-06-27T09:54:30.392Z,5.43
2019-06-27T09:56:58.324Z,5.25
2019-06-27T09:59:26.229Z,5.37
2019-06-27T10:01:57.595Z,5.60
2019-06-27T10:04:25.553Z,4.70
2019-06-27T10:06:53.446Z,5.07
2019-06-27T10:09:21.401Z,4.40
2019-06-27T10:11:49.298Z,4.87
2019-06-27T10:14:17.215Z,4.93
2019-06-27T10:16:45.176Z,5.70
2019-06-27T10:19:13.101Z,4.07
2019-06-27T10:21:40.997Z,4.67
2019-06-27T10:24:08.969Z,4.95
2019-06-27T10:26:36.879Z,5.12
2019-06-27T10:29:04.820Z,5.32
2019-06-27T10:31:32.762Z,4.25
2019-06-27T10:34:01.043Z,4.80
2019-06-27T10:36:28.957Z,4.80
2019-06-27T10:38:59.160Z,4.83
2019-06-27T10:41:27.070Z,3.90
2019-06-27T10:43:58.331Z,4.50
2019-06-27T10:46:23.107Z,4.62
2019-06-27T10:48:51.020Z,3.25
2019-06-27T10:51:18.935Z,3.92
2019-06-27T10:53:46.883Z,3.67
2019-06-27T10:56:14.814Z,3.67
2019-06-27T10:58:42.720Z,3.80
2019-06-27T11:01:10.645Z,3.47
2019-06-27T11:03:38.830Z,3.67
2019-06-27T11:06:06.465Z,3.60
2019-06-27T11:08:37.681Z,3.83
2019-06-27T11:11:05.590Z,4.03
2019-06-27T11:13:33.512Z,4.35
2019-06-27T11:16:01.627Z,4.40
2019-06-27T11:18:29.367Z,4.15
2019-06-27T11:20:57.286Z,4.25
2019-06-27T11:23:25.218Z,4.20
2019-06-27T11:25:53.149Z,4.40
2019-06-27T11:28:21.124Z,3.87
2019-06-27T11:30:49.685Z,3.15
2019-06-27T11:33:31.357Z,3.50
2019-06-27T11:35:49.613Z,3.90
2019-06-27T11:38:17.766Z,3.85
2019-06-27T11:40:45.899Z,3.65
2019-06-27T11:43:13.866Z,3.70
2019-06-27T11:45:41.811Z,3.20
2019-06-27T11:48:09.719Z,3.30
2019-06-27T11:50:37.629Z,3.27
2019-06-27T11:53:05.585Z,3.00
2019-06-27T11:55:33.506Z,2.65
2019-06-27T11:58:01.397Z,3.10
2019-06-27T12:00:29.351Z,3.30
2019-06-27T12:02:57.272Z,3.25
2019-06-27T12:05:25.176Z,3.35
2019-06-27T12:07:53.120Z,3.47
2019-06-27T12:10:21.078Z,2.90
2019-06-27T12:12:48.937Z,3.10
2019-06-27T12:15:17.076Z,3.28
2019-06-27T12:17:45.002Z,3.20
2019-06-27T12:20:12.919Z,2.97
2019-06-27T12:22:40.861Z,2.60
2019-06-27T12:25:08.764Z,2.97
2019-06-27T12:27:36.681Z,2.58
2019-06-27T12:30:07.839Z,2.67
2019-06-27T12:32:50.423Z,3.22
2019-06-27T12:35:03.603Z,3.10
2019-06-27T12:37:34.179Z,3.22
2019-06-27T12:40:02.293Z,3.22
2019-06-27T12:42:32.724Z,2.70
2019-06-27T12:44:58.042Z,3.00
2019-06-27T12:47:25.958Z,3.00
2019-06-27T12:50:02.063Z,2.65
2019-06-27T12:52:21.805Z,2.30
2019-06-27T12:54:49.720Z,2.30
2019-06-27T12:57:17.651Z,2.70
2019-06-27T12:59:45.930Z,2.53
2019-06-27T13:02:13.823Z,2.40
2019-06-27T13:04:41.709Z,2.90
2019-06-27T13:07:09.668Z,3.30
2019-06-27T13:09:37.645Z,2.65
2019-06-27T13:12:05.505Z,2.87
2019-06-27T13:14:33.451Z,2.92
2019-06-27T13:17:01.360Z,3.08
2019-06-27T13:19:29.277Z,3.20
2019-06-27T13:22:02.125Z,3.28
2019-06-27T13:24:30.032Z,3.17
2019-06-27T13:26:57.940Z,3.12
2019-06-27T13:29:26.930Z,3.40
2019-06-27T13:31:53.787Z,3.20
2019-06-27T13:34:21.707Z,3.10
2019-06-27T13:36:49.648Z,3.35
2019-06-27T13:39:22.164Z,3.72
2019-06-27T13:41:50.077Z,3.10
2019-06-27T13:44:20.735Z,3.00
2019-06-27T13:46:48.654Z,3.05
2019-06-27T13:49:16.563Z,3.42
2019-06-27T13:51:44.505Z,3.08
2019-06-27T13:54:12.433Z,2.90
2019-06-27T13:56:40.344Z,2.87
2019-06-27T13:59:08.327Z,3.07
2019-06-27T14:01:36.210Z,2.80
2019-06-27T14:04:04.145Z,2.50
2019-06-27T14:06:32.111Z,2.95
2019-06-27T14:08:59.990Z,2.80
2019-06-27T14:11:27.918Z,2.53
2019-06-27T14:13:57.560Z,2.55
2019-06-27T14:16:25.485Z,2.72
2019-06-27T14:18:53.403Z,2.87
2019-06-27T14:21:21.360Z,3.08
2019-06-27T14:23:49.291Z,2.80
2019-06-27T14:26:17.203Z,3.08
2019-06-27T14:28:46.636Z,2.60
2019-06-27T14:31:13.099Z,2.90
2019-06-27T14:33:41.010Z,2.70
2019-06-27T14:36:08.961Z,3.37
2019-06-27T14:38:36.865Z,3.05
2019-06-27T14:41:10.896Z,2.83
2019-06-27T14:43:38.843Z,3.10
2019-06-27T14:46:06.772Z,2.80
2019-06-27T14:48:34.665Z,2.78
2019-06-27T14:51:06.592Z,2.43
2019-06-27T14:53:34.508Z,2.42
2019-06-27T14:56:02.449Z,2.62
2019-06-27T14:58:33.413Z,2.78
2019-06-27T15:00:58.300Z,2.40
2019-06-27T15:03:26.216Z,2.28
2019-06-27T15:05:54.234Z,2.30
2019-06-27T15:08:22.146Z,2.08
2019-06-27T15:10:50.090Z,2.50
2019-06-27T15:13:19.099Z,2.50
2019-06-27T15:15:46.935Z,2.12
2019-06-27T15:18:16.778Z,2.80
2019-06-27T15:20:45.990Z,2.95
2019-06-27T15:23:13.896Z,2.80
2019-06-27T15:25:41.829Z,2.42
2019-06-27T15:28:09.776Z,2.80
2019-06-27T15:30:37.684Z,4.25
2019-06-27T15:33:08.225Z,2.70
2019-06-27T15:35:50.965Z,2.97
2019-06-27T15:38:04.274Z,3.08
2019-06-27T15:40:32.191Z,2.95
2019-06-27T15:43:00.395Z,2.90
2019-06-27T15:45:28.311Z,2.83
2019-06-27T15:47:56.216Z,2.87
2019-06-27T15:50:24.174Z,2.50
2019-06-27T15:52:52.103Z,2.83
2019-06-27T15:55:20.007Z,2.60
2019-06-27T15:57:51.643Z,2.95
2019-06-27T16:00:19.557Z,2.93
2019-06-27T16:02:47.477Z,3.53
2019-06-27T16:05:15.470Z,2.85
2019-06-27T16:07:43.351Z,2.67
2019-06-27T16:10:11.257Z,2.97
2019-06-27T16:12:39.196Z,2.67
2019-06-27T16:15:09.213Z,2.67
2019-06-27T16:17:35.028Z,3.00
2019-06-27T16:20:06.579Z,2.87
2019-06-27T16:22:36.354Z,3.05
2019-06-27T16:25:02.559Z,3.28
2019-06-27T16:27:30.388Z,3.20
2019-06-27T16:29:58.306Z,4.00
2019-06-27T16:32:26.236Z,3.87
2019-06-27T16:34:54.193Z,4.07
2019-06-27T16:37:22.117Z,3.30
2019-06-27T16:39:50.029Z,3.33
2019-06-27T16:42:17.987Z,3.33
2019-06-27T16:44:46.091Z,3.12
2019-06-27T16:47:14.012Z,2.80
2019-06-27T16:49:41.964Z,3.20
2019-06-27T16:52:09.894Z,3.00
2019-06-27T16:54:37.802Z,2.80
2019-06-27T16:59:46.652Z,3.17
2019-06-27T17:02:14.562Z,2.97
2019-06-27T17:04:42.485Z,3.22
2019-06-27T17:07:10.432Z,3.57
2019-06-27T17:09:38.472Z,4.40
2019-06-27T17:12:06.399Z,3.05
2019-06-27T17:14:34.348Z,3.25
2019-06-27T17:17:02.262Z,3.20
2019-06-27T17:19:30.164Z,3.45
2019-06-27T17:21:58.402Z,2.80
2019-06-27T17:24:26.317Z,3.35
2019-06-27T17:26:54.224Z,2.77
2019-06-27T17:29:24.375Z,3.30
2019-06-27T17:31:50.084Z,3.17
2019-06-27T17:34:18.001Z,3.58
2019-06-27T17:36:56.934Z,3.05
2019-06-27T17:39:13.871Z,2.75
2019-06-27T17:41:41.780Z,2.90
2019-06-27T17:44:10.969Z,3.37
2019-06-27T17:46:40.507Z,3.87
2019-06-27T17:49:08.427Z,3.67
2019-06-27T17:51:36.373Z,3.50
2019-06-27T17:54:04.306Z,3.67
2019-06-27T17:56:32.227Z,3.50
2019-06-27T17:59:00.180Z,3.25
2019-06-27T18:01:28.095Z,3.20
2019-06-27T18:03:56.008Z,3.62
2019-06-27T18:06:24.789Z,2.90
2019-06-27T18:08:52.692Z,3.70
2019-06-27T18:11:20.598Z,3.80
2019-06-27T18:13:48.548Z,3.22
2019-06-27T18:16:16.465Z,3.00
2019-06-27T18:18:44.373Z,3.10
2019-06-27T18:21:12.326Z,3.20
2019-06-27T18:23:40.258Z,3.65
2019-06-27T18:26:08.179Z,3.80
2019-06-27T18:28:37.385Z,3.23
2019-06-27T18:31:07.966Z,3.60
2019-06-27T18:33:35.893Z,3.40
2019-06-27T18:36:03.835Z,3.67
2019-06-27T18:38:31.753Z,3.75
2019-06-27T18:40:59.673Z,3.83
2019-06-27T18:43:27.623Z,3.70
2019-06-27T18:45:55.526Z,3.90
2019-06-27T18:48:23.867Z,3.58
2019-06-27T18:50:52.719Z,3.70
2019-06-27T18:53:22.335Z,3.80
2019-06-27T18:55:51.053Z,3.70
2019-06-27T18:58:19.482Z,3.55
2019-06-27T19:00:47.407Z,3.80
2019-06-27T19:03:15.357Z,3.97
2019-06-27T19:05:43.298Z,3.95
2019-06-27T19:08:11.238Z,4.07
2019-06-27T19:10:39.130Z,4.35
2019-06-27T19:13:08.891Z,4.00
2019-06-27T19:15:36.793Z,3.67
2019-06-27T19:18:04.711Z,4.20
2019-06-27T19:20:35.711Z,4.47
2019-06-27T19:23:03.617Z,4.37
2019-06-27T19:25:31.532Z,4.12
2019-06-27T19:27:59.465Z,4.20
2019-06-27T19:30:27.403Z,4.40
2019-06-27T19:32:55.299Z,4.18
2019-06-27T19:35:23.273Z,4.50
2019-06-27T19:38:01.411Z,4.40
2019-06-27T19:40:19.100Z,4.35
2019-06-27T19:42:47.106Z,4.28
2019-06-27T19:45:15.055Z,4.30
2019-06-27T19:47:42.948Z,4.47
2019-06-27T19:50:14.706Z,4.30
2019-06-27T19:52:42.642Z,4.45
2019-06-27T19:55:10.562Z,4.35
2019-06-27T19:57:38.555Z,5.35
2019-06-27T20:00:06.466Z,4.60
2019-06-27T20:02:34.368Z,4.53
2019-06-27T20:05:02.326Z,4.68
2019-06-27T20:07:30.235Z,4.90
2019-06-27T20:09:58.151Z,4.65
2019-06-27T20:12:26.103Z,4.62
2019-06-27T20:14:54.022Z,4.50
2019-06-27T20:17:21.953Z,4.30
2019-06-27T20:19:53.119Z,4.47
2019-06-27T20:22:21.030Z,4.22
2019-06-27T20:24:48.968Z,4.50
2019-06-27T20:27:19.568Z,4.87
2019-06-27T20:29:47.499Z,4.57
2019-06-27T20:32:15.406Z,4.70
2019-06-27T20:34:45.600Z,4.80
2019-06-27T20:37:13.506Z,4.78
2019-06-27T20:39:41.415Z,4.90
2019-06-27T20:42:09.564Z,4.97
2019-06-27T20:44:37.468Z,4.70
2019-06-27T20:47:08.023Z,4.72
2019-06-27T20:49:35.978Z,4.82
2019-06-27T20:52:03.901Z,5.28
2019-06-27T20:54:31.811Z,5.47
2019-06-27T20:57:00.592Z,4.70
2019-06-27T20:59:28.512Z,4.72
2019-06-27T21:02:02.723Z,5.30
2019-06-27T21:04:31.059Z,5.10
2019-06-27T21:06:58.980Z,5.22
2019-06-27T21:09:26.908Z,5.17
2019-06-27T21:11:56.521Z,5.70
2019-06-27T21:14:24.526Z,5.32
2019-06-27T21:16:52.453Z,5.20
2019-06-27T21:19:20.419Z,5.68
2019-06-27T21:21:48.324Z,4.93
2019-06-27T21:24:16.262Z,5.20
2019-06-27T21:26:44.238Z,5.12
2019-06-27T21:29:12.152Z,5.60
2019-06-27T21:31:40.075Z,5.22
2019-06-27T21:34:08.001Z,5.60
2019-06-27T21:36:35.911Z,5.05
2019-06-27T21:39:07.953Z,5.23
2019-06-27T21:41:34.203Z,5.90
2019-06-27T21:44:02.129Z,6.10
2019-06-27T21:46:30.050Z,5.70
2019-06-27T21:48:58.021Z,6.10
2019-06-27T21:51:25.933Z,5.95
2019-06-27T21:53:55.756Z,5.53
2019-06-27T21:56:23.534Z,5.43
2019-06-27T21:58:51.442Z,5.62
2019-06-27T22:01:19.352Z,5.87
2019-06-27T22:03:49.814Z,6.05
2019-06-27T22:06:20.154Z,5.93
2019-06-27T22:08:45.626Z,5.80
2019-06-27T22:11:13.589Z,6.05
2019-06-27T22:13:41.490Z,5.85
2019-06-27T22:16:09.397Z,5.97
2019-06-27T22:18:37.338Z,6.10
2019-06-27T22:21:05.244Z,5.82
2019-06-27T22:23:33.162Z,6.43
2019-06-27T22:26:01.101Z,6.53
2019-06-27T22:28:29.014Z,6.57
2019-06-27T22:30:59.573Z,6.65
2019-06-27T22:33:27.748Z,6.82
2019-06-27T22:35:55.654Z,6.90
2019-06-27T22:38:41.758Z,6.87
2019-06-27T22:41:27.706Z,6.97
2019-06-27T22:44:14.075Z,6.67
2019-06-27T22:47:00.120Z,6.80
2019-06-27T22:49:29.162Z,6.90
2019-06-27T22:52:16.773Z,7.85
2019-06-27T22:54:45.945Z,7.30
2019-06-27T22:57:19.330Z,6.65
2019-06-27T22:59:47.244Z,6.83
2019-06-27T23:02:15.190Z,7.07
2019-06-27T23:04:43.101Z,6.67
2019-06-27T23:07:11.014Z,6.77
2019-06-27T23:09:38.979Z,7.40
2019-06-27T23:12:06.884Z,7.50
2019-06-27T23:14:34.789Z,7.72
2019-06-27T23:17:02.788Z,7.43
2019-06-27T23:19:30.636Z,7.68
2019-06-27T23:21:58.565Z,8.30
2019-06-27T23:24:26.503Z,7.90
2019-06-27T23:26:54.414Z,8.15
2019-06-27T23:29:22.327Z,7.90
2019-06-27T23:31:50.489Z,8.00
2019-06-27T23:34:18.401Z,8.30
2019-06-27T23:36:46.321Z,7.23
2019-06-27T23:39:14.265Z,7.55
2019-06-27T23:41:42.605Z,8.10
2019-06-27T23:44:10.524Z,8.00
2019-06-27T23:46:38.474Z,7.90
2019-06-27T23:49:06.389Z,7.60
2019-06-27T23:51:34.308Z,7.93
2019-06-27T23:54:07.310Z,8.88
2019-06-27T23:56:35.230Z,8.27
2019-06-27T23:59:04.218Z,8.15
